Wild Boar Gully, Santa Catalina Island Weather observations

Data are for 10 minute period ending at time listed.
 Day   Time   Solar   Ave.   Ave.  Ave.  Vector    Max.   Stn.    Total
  of    of     Rad.   Air    Rel.  Wind   Wind     Wind   Baro.  Precip.
Year   Day            Temp.  Hum.  Speed  Dir.     Gust   Pres.         
2014   (PST)   W/m2    F      %     mph   deg.      mph    mb.     in.  
------------------------------------------------------------------------
 206    0:00    0.0    70   75.3     3    111.9     4.8    999.0   0.00  
 206    0:10    0.0    69   76.6     2    101.6     4.2    999.0   0.00  
 206    0:20    0.0    70   77.0     4    130.6     6.0    999.0   0.00  
 206    0:30    0.0    70   75.4     4     93.4     6.6    999.0   0.00  
 206    0:40    0.0    70   74.9     2    104.9     5.4    999.0   0.00  
 206    0:50    0.0    70   75.7     2    266.6     3.6    999.0   0.00  
 206    1:00    0.0    69   78.3     1    251.6     3.0    999.0   0.00  
 206    1:10    0.0    69   79.0     1     92.3     0.6    999.0   0.00  
 206    1:20    0.0    69   79.3     3    192.1     4.2    999.0   0.00  
 206    1:30    0.0    69   79.0     3    200.8     4.8    999.0   0.00  
 206    1:40    0.0    68   79.3     2    186.8     3.6    999.0   0.00  
 206    1:50    0.0    68   80.2     4    222.8     6.0    999.0   0.00  
 206    2:00    0.0    67   81.6     4    234.9     5.4    999.0   0.00  
 206    2:10    0.0    67   82.7     4    249.3     6.6    999.0   0.00  
 206    2:20    0.0    67   83.3     3    241.9     5.4    999.0   0.00  
 206    2:30    0.0    66   83.8     4    265.2     5.4    999.0   0.00  
 206    2:40    0.0    66   84.3     4    267.6     5.4    999.0   0.00  
 206    2:50    0.0    66   84.6     4    276.8     6.0    999.0   0.00  
 206    3:00    0.0    66   84.7     3    273.5     4.8    999.0   0.00  
 206    3:10    0.0    66   85.0     3    258.4     5.4    999.0   0.00  
 206    3:20    0.0    66   85.2     3    254.1     4.8    999.0   0.00  
 206    3:30    0.0    66   85.2     1    252.5     3.0    999.0   0.00  
 206    3:40    0.0    66   85.4     2    214.7     4.2    999.0   0.00  
 206    3:50    0.0    66   85.5     2    165.7     3.6    999.0   0.00  
 206    4:00    0.0    66   85.6     4     72.2     6.6    999.0   0.00  
 206    4:10    0.0    66   85.7     4     69.3     6.0    999.0   0.00  
 206    4:20    0.0    66   85.9     5    104.9     6.6    999.0   0.00  
 206    4:30    0.0    66   86.1     5     92.9     6.6    999.0   0.00  
 206    4:40    0.0    66   85.4     7     67.6    10.2    999.0   0.00  
 206    4:50    0.0    67   80.8     6     66.6     7.2    999.0   0.00  
 206    5:00    0.0    68   79.2     5     82.4     7.8    999.0   0.00  
 206    5:10    1.0    68   78.4     6    111.8     7.2    999.0   0.00  
 206    5:20    6.0    67   82.9     5    108.7     7.2    999.0   0.00  
 206    5:30    9.0    66   84.4     5     92.4     7.2    999.0   0.00  
 206    5:40   21.0    66   85.1     5     82.4     8.4    999.0   0.00  
 206    5:50   55.0    67   85.3     7     79.2    10.2    999.0   0.00  
 206    6:00   78.0    67   84.8     8     77.4    11.3    999.0   0.00  
 206    6:10  104.0    68   84.3    10     76.2    12.5    999.0   0.00  
 206    6:20  128.0    68   83.6     8     82.5    10.8    999.0   0.00  
 206    6:30  148.0    69   82.7     5     95.4     7.8    999.0   0.00  
 206    6:40  114.0    69   82.1     5    102.4     9.0    999.0   0.00  
 206    6:50  161.0    69   82.7     5    112.6     7.2    999.0   0.00  
 206    7:00  211.0    69   82.7     5    129.0     7.2    999.0   0.00  
 206    7:10  273.0    71   81.6     3    110.6     4.8    999.0   0.00  
 206    7:20  297.0    71   80.0     5    128.5     7.2    999.0   0.00  
 206    7:30  327.0    70   80.4     5    133.3     7.2    999.0   0.00  
 206    7:40  331.0    70   80.4     5    129.1     7.8    999.0   0.00  
 206    7:50  348.0    70   80.1     5    129.8     7.8    999.0   0.00  
 206    8:00  347.0    71   79.6     4    134.3     7.2    999.0   0.00  
 206    8:10  438.0    72   77.7     4    144.2     7.2    999.0   0.00  
 206    8:20  427.0    72   76.7     5    140.8     9.0    999.0   0.00  
 206    8:30  379.0    72   76.9     4    145.0     7.2    999.0   0.00  
 206    8:40  506.0    72   77.4     4    133.9     6.6    999.0   0.00  
 206    8:50  424.0    72   75.8     4    150.6     7.8    999.0   0.00  
 206    9:00  561.0    72   76.7     4    195.6     7.8    999.0   0.00  
 206    9:10  622.0    72   76.7     5    225.0     7.8    999.0   0.00  
 206    9:20  545.0    73   74.8     5    166.2     9.0    999.0   0.00  
 206    9:30  544.0    73   75.3     4    170.5     7.2    999.0   0.00  
 206    9:40  703.0    74   72.5     4    207.0     7.2    999.0   0.00  
 206    9:50  644.0    72   74.5     6    247.8    10.8    999.0   0.00  
 206   10:00  694.0    71   77.3     6    246.8    10.2    999.0   0.00  
 206   10:10  785.0    71   77.6     6    246.0     9.6    999.0   0.00  
 206   10:20  448.0    70   77.8     6    239.1     7.8    999.0   0.00  
 206   10:30  422.0    70   78.1     5    240.3     7.8    999.0   0.00  
 206   10:40  646.0    70   78.2     5    233.2     7.8    999.0   0.00  
 206   10:50  805.0    72   76.3     5    237.3     7.2    999.0   0.00  
 206   11:00  811.0    72   75.4     6    239.4     9.0    999.0   0.00  
 206   11:10  765.0    72   75.5     6    243.9     9.6    999.0   0.00  
 206   11:20  471.0    71   75.8     7    240.0    10.8    999.0   0.00  
 206   11:30  531.0    70   77.6     7    244.2     9.6    999.0   0.00  
 206   11:40  464.0    71   76.9     8    237.2    11.9    999.0   0.00  
 206   11:50  389.0    70   77.0     7    235.0    11.9    999.0   0.00  
 206   12:00  306.0    70   78.1     6    234.2     7.8    999.0   0.00  
 206   12:10  284.0    70   78.1     6    226.8     7.8    999.0   0.00  
 206   12:20  293.0    69   79.1     6    238.6     8.4    999.0   0.00  
 206   12:30  323.0    70   79.1     5    232.2     7.8    999.0   0.00  
 206   12:40  342.0    70   78.3     4    237.4     7.2    999.0   0.00  
 206   12:50  390.0    70   78.8     5    247.4     7.2    999.0   0.00  
 206   13:00  490.0    70   78.4     6    238.6     9.0    999.0   0.00  
 206   13:10  258.0    70   78.2     4    237.1     8.4    999.0   0.00  
 206   13:20  229.0    70   77.3     5    247.4     7.8    999.0   0.00  
 206   13:30  237.0    70   78.5     4    247.1     6.6    999.0   0.00  
 206   13:40  288.0    70   78.5     5    240.6     8.4    999.0   0.00  
 206   13:50  345.0    70   77.9     3    248.6     6.0    999.0   0.00  
 206   14:00  405.0    71   75.9     4    244.2     6.6    999.0   0.00  
 206   14:10  568.0    71   75.9     5    236.7     8.4    999.0   0.00  
 206   14:20  425.0    71   75.8     5    229.6     7.8    999.0   0.00  
 206   14:30  390.0    71   75.5     5    233.5     7.8    999.0   0.00  
 206   14:40  417.0    71   76.1     5    230.6     7.8    999.0   0.00  
 206   14:50  353.0    71   77.3     4    235.6     6.6    999.0   0.00  
 206   15:00  247.0    71   77.0     5    247.5     7.2    999.0   0.00  
 206   15:10  244.0    70   78.7     4    241.4     6.6    999.0   0.00  
 206   15:20  232.0    70   79.2     4    197.1     7.2    999.0   0.00  
 206   15:30  199.0    70   78.7     4    246.9     6.6    999.0   0.00  
 206   15:40  185.0    70   79.0     4    240.9     6.0    999.0   0.00  
 206   15:50  202.0    70   78.9     4    239.7     6.0    999.0   0.00  
 206   16:00  192.0    70   78.9     3    262.7     4.8    999.0   0.00  
 206   16:10  185.0    70   78.8     3    241.8     5.4    999.0   0.00  
 206   16:20  183.0    70   79.1     3    253.7     5.4    999.0   0.00  
 206   16:30  183.0    70   79.1     3    247.4     5.4    999.0   0.00  
 206   16:40  145.0    71   79.0     4    258.4     7.2    999.0   0.00  
 206   16:50  124.0    71   78.2     4    244.1     7.8    999.0   0.00  
 206   17:00  122.0    71   77.7     5    235.5     7.8    999.0   0.00  
 206   17:10  132.0    71   78.3     5    247.1     6.6    999.0   0.00  
 206   17:20  150.0    71   79.0     4    243.1     6.0    999.0   0.00  
 206   17:30  124.0    72   78.7     4    240.2     6.6    999.0   0.00  
 206   17:40   81.0    71   79.2     4    237.0     6.0    999.0   0.00  
 206   17:50   70.0    71   80.4     4    244.9     6.0    999.0   0.00  
 206   18:00   55.0    70   81.0     6    263.0    10.2    999.0   0.00  
 206   18:10   39.0    70   81.7     8    268.4    11.3    999.0   0.00  
 206   18:20   33.0    69   82.3     8    268.4    10.8    999.0   0.00  
 206   18:30   44.0    69   82.7     7    268.4    10.2    999.0   0.00  
 206   18:40   29.0    70   82.5     6    265.0     9.0    999.0   0.00  
 206   18:50   12.0    69   83.0     7    266.2    10.8    999.0   0.00  
 206   19:00    7.0    69   84.1     8    270.7    11.9    999.0   0.00  
 206   19:10    6.0    68   84.8     6    268.1    10.2    999.0   0.00  
 206   19:20    0.0    68   85.1     4    255.6     7.2    999.0   0.00  
 206   19:30    0.0    68   85.3     5    260.0     8.4    999.0   0.00  
 206   19:40    0.0    68   85.6     6    264.8     9.0    999.0   0.00  
 206   19:50    0.0    68   85.8     6    264.6     9.6    999.0   0.00  
 206   20:00    0.0    68   85.9     4    251.0     6.0    999.0   0.00  
 206   20:10    0.0    68   86.0     4    268.0     5.4    999.0   0.00  
 206   20:20    0.0    68   86.0     6    275.5     7.8    999.0   0.00  
 206   20:30    0.0    68   86.1     6    271.3     9.0    999.0   0.00  
 206   20:40    0.0    67   86.2     6    268.7     9.0    999.0   0.00  
 206   20:50    0.0    67   86.2     7    270.7     9.6    999.0   0.00  
 206   21:00    0.0    67   86.3     5    263.3     7.2    999.0   0.00  
 206   21:10    0.0    67   86.3     6    273.8     9.0    999.0   0.00  
 206   21:20    0.0    67   86.4     7    269.6    10.8    999.0   0.00  
 206   21:30    0.0    67   86.4     6    266.6     9.0    999.0   0.00  
 206   21:40    0.0    67   86.5     5    269.4     9.6    999.0   0.00  
 206   21:50    0.0    67   86.5     4    259.1     7.8    999.0   0.00  
 206   22:00    0.0    67   86.5     4    243.5     5.4    999.0   0.00  
 206   22:10    0.0    67   86.5     5    260.0     7.2    999.0   0.00  
 206   22:20    0.0    67   86.6     4    279.2     6.6    999.0   0.00  
 206   22:30    0.0    67   86.6     5    274.2     7.2    999.0   0.00  
 206   22:40    0.0    67   86.6     4    268.4     6.6    999.0   0.00  
 206   22:50    0.0    67   86.6     4    292.4     6.0    999.0   0.00  
 206   23:00    0.0    67   86.5     2    285.8     6.6    999.0   0.00  
 206   23:10    0.0    66   86.5     5    293.2     8.4    999.0   0.00  
 206   23:20    0.0    66   86.3     3    208.1     6.0    999.0   0.00  
 206   23:30    0.0    67   86.2     5    274.7     7.2    999.0   0.00  

Return to Wild Boar Gully graphs page.


Western Regional Climate Center,wrcc@dri.edu